Time;durP1;ratioP1;P1;durP2;ratioP2;P2;SDS_P1;SDS_P2;PMS_P1;PMS_P2;Temp;Humidity;BMP_temperature;BMP_pressure;BME280_temperature;BME280_humidity;BME280_pressure;Samples;Min_cycle;Max_cycle;Signal;HPM_P1;HPM_P2
2021/05/12 00:01:10;;;;;;;3.35;3.10;;;;;;;17.19;46.58;94065.60;828346;71;30059;-77
2021/05/12 00:16:08;;;;;;;5.50;3.60;;;;;;;17.53;44.88;94050.69;828385;71;29769;-76
2021/05/12 00:31:08;;;;;;;3.50;3.20;;;;;;;16.79;45.10;94034.61;828636;71;29724;-78
2021/05/12 00:46:09;;;;;;;3.30;3.10;;;;;;;17.03;46.62;94030.31;828217;71;30233;-76
2021/05/12 01:01:10;;;;;;;5.05;3.20;;;;;;;17.90;44.63;94014.60;829220;71;30485;-77
2021/05/12 01:16:16;;;;;;;3.30;3.10;;;;;;;18.03;43.77;93991.39;834101;71;33119;-78
2021/05/12 01:31:23;;;;;;;4.95;3.58;;;;;;;18.05;44.71;93978.53;829678;71;29749;-77
2021/05/12 01:46:14;;;;;;;3.92;3.62;;;;;;;18.30;44.53;93981.13;827598;71;32742;-75
2021/05/12 02:01:14;;;;;;;3.90;3.60;;;;;;;18.36;44.50;93963.03;827373;71;32914;-75
2021/05/12 02:16:08;;;;;;;3.75;3.42;;;;;;;18.37;44.51;93956.04;833863;71;29667;-74
2021/05/12 02:31:08;;;;;;;3.35;3.15;;;;;;;18.34;44.66;93948.00;828267;71;30157;-76
2021/05/12 02:46:09;;;;;;;3.95;3.30;;;;;;;18.28;44.92;93952.81;828118;71;30281;-76
2021/05/12 03:01:50;;;;;;;4.08;3.77;;;;;;;18.25;45.32;93954.86;827695;71;31766;-78
2021/05/12 03:16:12;;;;;;;4.70;4.10;;;;;;;18.31;45.44;93948.14;829200;71;31325;-77
2021/05/12 03:31:08;;;;;;;4.00;3.70;;;;;;;19.27;46.28;93940.34;824725;71;28728;-81
2021/05/12 03:46:08;;;;;;;14.03;12.65;;;;;;;20.87;44.52;93928.13;828330;71;29169;-77
2021/05/12 04:01:09;;;;;;;5.10;4.60;;;;;;;21.91;41.60;93923.56;828415;71;29759;-78
2021/05/12 04:16:09;;;;;;;5.15;4.22;;;;;;;22.51;38.46;93922.33;835950;71;29329;-77
2021/05/12 04:31:27;;;;;;;5.28;4.78;;;;;;;22.05;39.17;93910.09;835438;71;31817;-76
2021/05/12 04:46:08;;;;;;;5.87;5.37;;;;;;;22.84;36.51;93894.30;828808;71;29096;-79
2021/05/12 05:01:09;;;;;;;5.43;4.90;;;;;;;23.37;35.70;93884.20;827779;71;29259;-77
2021/05/12 05:16:13;;;;;;;5.50;5.00;;;;;;;22.33;36.18;93858.10;828593;71;31552;-78
2021/05/12 05:31:16;;;;;;;8.20;6.10;;;;;;;22.90;35.93;93852.06;829212;70;31724;-77
2021/05/12 05:46:09;;;;;;;6.57;5.13;;;;;;;22.08;36.86;93835.30;828675;71;28625;-75
2021/05/12 06:01:16;;;;;;;10.48;5.47;;;;;;;20.93;38.73;93844.55;834030;71;31730;-75
2021/05/12 06:16:31;;;;;;;5.87;5.30;;;;;;;20.36;40.00;93812.80;827809;71;32253;-75
2021/05/12 06:31:19;;;;;;;7.15;6.10;;;;;;;20.31;41.07;93808.55;827410;71;31742;-76
2021/05/12 06:46:11;;;;;;;6.25;5.70;;;;;;;20.63;40.90;93799.36;834147;71;30394;-76
2021/05/12 07:01:13;;;;;;;6.70;6.10;;;;;;;21.72;39.19;93792.42;828312;71;29275;-76
2021/05/12 07:16:08;;;;;;;5.55;5.05;;;;;;;22.08;38.97;93786.41;829079;71;28724;-76
2021/05/12 07:31:08;;;;;;;8.83;5.97;;;;;;;23.00;37.29;93754.20;833877;71;28748;-74
2021/05/12 07:46:14;;;;;;;5.60;5.10;;;;;;;22.43;38.01;93757.68;834085;71;31770;-74
2021/05/12 08:01:28;;;;;;;6.28;5.33;;;;;;;22.50;37.71;93738.19;829080;71;28669;-75
2021/05/12 08:16:16;;;;;;;5.00;4.50;;;;;;;23.12;36.80;93728.41;827607;71;32323;-74
2021/05/12 08:31:10;;;;;;;5.57;4.70;;;;;;;23.13;36.66;93704.48;828776;71;29384;-76
2021/05/12 08:46:14;;;;;;;5.43;4.93;;;;;;;23.29;36.53;93688.58;834091;71;30975;-74
2021/05/12 09:01:48;;;;;;;5.60;5.20;;;;;;;22.86;37.44;93684.09;828268;71;31678;-76
2021/05/12 09:16:24;;;;;;;5.30;4.90;;;;;;;23.32;37.03;93673.84;825478;70;29775;-75
2021/05/12 09:31:12;;;;;;;6.23;4.90;;;;;;;23.12;37.58;93661.49;828890;71;30309;-76
2021/05/12 09:46:23;;;;;;;5.83;5.33;;;;;;;23.39;37.87;93658.31;827660;71;31860;-75
2021/05/12 10:01:10;;;;;;;6.43;5.30;;;;;;;24.18;37.42;93644.45;829264;71;28731;-75
2021/05/12 10:16:13;;;;;;;5.67;4.97;;;;;;;23.86;37.93;93635.31;829310;71;30225;-76
2021/05/12 10:31:10;;;;;;;5.87;5.03;;;;;;;23.96;37.86;93618.39;829102;71;29892;-75
2021/05/12 10:46:17;;;;;;;5.53;5.10;;;;;;;23.68;38.14;93604.03;828044;71;32723;-75
2021/05/12 11:01:13;;;;;;;5.67;5.27;;;;;;;23.72;38.54;93592.71;835164;71;32177;-76
2021/05/12 11:31:29;;;;;;;6.77;5.43;;;;;;;24.00;37.87;93559.58;834293;71;30343;-77
2021/05/12 11:46:39;;;;;;;5.13;4.73;;;;;;;24.74;37.14;93537.04;828753;71;32712;-76
2021/05/12 12:16:14;;;;;;;5.27;4.80;;;;;;;24.29;38.77;93497.66;829134;71;30266;-76
2021/05/12 12:31:22;;;;;;;5.67;5.27;;;;;;;24.43;38.73;93467.81;835362;71;32713;-76
2021/05/12 12:46:27;;;;;;;6.30;5.20;;;;;;;24.29;39.81;93462.80;823772;71;32791;-77
2021/05/12 13:01:40;;;;;;;6.13;5.63;;;;;;;24.15;40.65;93467.73;828031;71;33173;-75
2021/05/12 13:16:31;;;;;;;5.73;5.20;;;;;;;23.78;40.84;93482.66;831735;71;30315;-79
2021/05/12 13:31:17;;;;;;;6.67;6.07;;;;;;;23.78;42.61;93483.22;834217;71;32730;-77
2021/05/12 15:16:21;;;;;;;6.92;5.75;;;;;;;20.00;50.45;93419.62;827828;71;31420;-76
2021/05/12 15:31:15;;;;;;;5.90;5.35;;;;;;;19.12;53.81;93427.97;827406;71;33172;-79
2021/05/12 15:46:13;;;;;;;5.95;5.35;;;;;;;18.97;50.30;93405.25;828864;71;32655;-75
2021/05/12 16:01:16;;;;;;;6.65;4.70;;;;;;;18.67;50.83;93394.70;833733;71;32784;-76
2021/05/12 16:16:15;;;;;;;8.23;5.37;;;;;;;18.46;51.58;93399.27;828226;71;30261;-76
2021/05/12 16:31:14;;;;;;;5.85;5.35;;;;;;;18.15;52.16;93410.52;827606;71;33242;-76
2021/05/12 16:46:08;;;;;;;5.87;5.47;;;;;;;17.81;53.12;93385.80;829766;71;29715;-78
2021/05/12 17:01:15;;;;;;;6.33;5.28;;;;;;;17.70;53.48;93396.84;827399;71;33177;-79
2021/05/12 17:16:15;;;;;;;6.87;6.17;;;;;;;17.97;55.98;93501.88;827233;71;32753;-74
2021/05/12 17:31:21;;;;;;;8.95;8.15;;;;;;;18.05;68.15;93596.98;827493;71;33241;-75
2021/05/12 18:01:14;;;;;;;10.10;9.10;;;;;;;17.54;74.34;93681.61;827643;71;32839;-80
2021/05/12 18:31:27;;;;;;;9.60;8.70;;;;;;;17.24;75.79;93676.13;827488;71;32739;-77
2021/05/12 18:46:21;;;;;;;10.88;9.25;;;;;;;17.21;76.39;93680.79;816884;71;32807;-81
2021/05/12 19:01:08;;;;;;;10.10;9.15;;;;;;;17.16;76.87;93685.82;833937;71;29772;-77
2021/05/12 19:16:23;;;;;;;11.25;10.15;;;;;;;17.12;77.00;93738.00;826283;71;32701;-79
2021/05/12 19:46:16;;;;;;;11.40;10.40;;;;;;;16.80;78.96;93702.84;827364;71;32714;-82
2021/05/12 20:01:23;;;;;;;13.78;12.47;;;;;;;16.58;80.70;93685.72;824270;71;32897;-77
2021/05/12 20:16:16;;;;;;;15.75;14.25;;;;;;;15.97;81.37;93667.89;822508;70;33797;-78
2021/05/12 20:31:10;;;;;;;11.57;10.35;;;;;;;17.26;77.54;93675.22;834905;71;29716;-77
2021/05/12 20:46:15;;;;;;;9.68;8.78;;;;;;;19.34;68.11;93693.59;827307;71;32776;-77
2021/05/12 21:01:44;;;;;;;9.63;8.58;;;;;;;20.30;63.65;93683.71;828823;71;30306;-78
2021/05/12 21:16:09;;;;;;;9.83;8.93;;;;;;;20.72;61.69;93691.81;828351;71;29778;-75
2021/05/12 21:31:19;;;;;;;10.68;9.75;;;;;;;20.93;61.09;93678.61;827307;71;32660;-76
2021/05/12 21:46:10;;;;;;;9.05;8.13;;;;;;;21.08;60.37;93683.44;834092;71;30329;-75
2021/05/12 22:01:09;;;;;;;10.03;9.03;;;;;;;20.91;60.38;93664.12;834476;71;30492;-78
2021/05/12 22:31:08;;;;;;;11.10;8.20;;;;;;;20.76;60.37;93641.94;828233;71;30183;-77
2021/05/12 22:46:08;;;;;;;10.10;9.10;;;;;;;20.87;60.01;93626.77;829302;71;29664;-81
2021/05/12 23:01:15;;;;;;;9.10;8.30;;;;;;;20.94;59.96;93622.78;833993;71;32685;-76
2021/05/12 23:16:15;;;;;;;10.53;7.95;;;;;;;20.97;59.55;93615.38;827333;71;33117;-75
2021/05/12 23:31:09;;;;;;;9.18;8.33;;;;;;;20.95;59.14;93610.98;833913;71;30277;-78
2021/05/12 23:46:14;;;;;;;8.80;7.95;;;;;;;20.84;59.06;93602.17;833944;71;33179;-80
